TimeAST,TemperatureF,Dew PointF,Humidity,Sea Level PressureIn,VisibilityMPH,Wind Direction,Wind SpeedMPH,Gust SpeedMPH,PrecipitationIn,Events,Conditions,WindDirDegrees,DateUTC
12:00 AM,93.2,75.2,56,29.39,-9999.0,North,4.6,-,N/A,,Clear,360,2013-07-21 21:00:00
12:30 AM,95.0,71.6,47,29.36,-9999.0,NNW,5.8,-,N/A,,Clear,330,2013-07-21 21:30:00
1:00 AM,95.0,71.6,47,29.36,-9999.0,NW,4.6,-,N/A,,Clear,310,2013-07-21 22:00:00
1:30 AM,93.2,69.8,46,29.36,-9999.0,NW,4.6,-,N/A,,Clear,320,2013-07-21 22:30:00
2:00 AM,93.2,69.8,46,29.36,-9999.0,Variable,2.3,-,N/A,,Clear,0,2013-07-21 23:00:00
2:30 AM,93.2,68.0,44,29.36,-9999.0,Variable,2.3,-,N/A,,Clear,0,2013-07-21 23:30:00
3:00 AM,92,69,37,29.38,6,NW,4.6,,,,,320,2013-07-22 00:00:00
3:00 AM,93.2,68.0,44,29.36,-9999.0,NW,4.6,-,N/A,,Clear,320,2013-07-22 00:00:00
3:30 AM,91.4,69.8,49,29.36,-9999.0,NW,5.8,-,N/A,,Clear,320,2013-07-22 00:30:00
4:00 AM,91.4,71.6,52,29.39,-9999.0,NW,6.9,-,N/A,,Clear,310,2013-07-22 01:00:00
4:30 AM,91.4,71.6,52,29.39,-9999.0,WNW,4.6,-,N/A,,Clear,300,2013-07-22 01:30:00
5:00 AM,91.4,73.4,55,29.39,-9999.0,NW,5.8,-,N/A,,Clear,310,2013-07-22 02:00:00
5:30 AM,91.4,71.6,52,29.39,-9999.0,WNW,4.6,-,N/A,,Clear,300,2013-07-22 02:30:00
6:00 AM,93.2,73.4,52,29.39,-9999.0,NW,5.8,-,N/A,,Clear,310,2013-07-22 03:00:00
6:30 AM,93.2,71.6,49,29.39,-9999.0,NW,5.8,-,N/A,,Clear,320,2013-07-22 03:30:00
7:00 AM,95.0,69.8,44,29.42,-9999.0,NNW,5.8,-,N/A,,Clear,330,2013-07-22 04:00:00
7:30 AM,96.8,68.0,39,29.42,-9999.0,NNW,10.4,-,N/A,,Clear,340,2013-07-22 04:30:00
8:00 AM,98.6,68.0,37,29.39,-9999.0,NNW,11.5,-,N/A,,Clear,330,2013-07-22 05:00:00
8:30 AM,98.6,69.8,39,29.42,-9999.0,NNW,11.5,-,N/A,,Clear,330,2013-07-22 05:30:00
9:00 AM,100,70,29,29.42,6,North,11.5,,,,Widespread Dust,350,2013-07-22 06:00:00
9:00 AM,100.4,69.8,37,29.42,5.6,North,11.5,-,N/A,,Unknown,350,2013-07-22 06:00:00
9:30 AM,102.2,71.6,37,29.42,5.6,North,11.5,-,N/A,,Unknown,350,2013-07-22 06:30:00
10:00 AM,102.2,73.4,40,29.42,-9999.0,North,13.8,-,N/A,,Clear,360,2013-07-22 07:00:00
10:30 AM,102.2,75.2,42,29.42,-9999.0,North,13.8,-,N/A,,Clear,360,2013-07-22 07:30:00
11:00 AM,102.2,73.4,40,29.42,-9999.0,North,11.5,-,N/A,,Clear,10,2013-07-22 08:00:00
11:30 AM,104.0,68.0,31,29.42,-9999.0,North,13.8,-,N/A,,Clear,10,2013-07-22 08:30:00
12:00 PM,104.0,66.2,29,29.39,-9999.0,North,13.8,-,N/A,,Clear,10,2013-07-22 09:00:00
12:30 PM,104.0,66.2,29,29.39,-9999.0,NNE,15.0,-,N/A,,Clear,20,2013-07-22 09:30:00
1:00 PM,105.8,64.4,26,29.39,-9999.0,NNE,16.1,-,N/A,,Clear,20,2013-07-22 10:00:00
1:30 PM,104.0,66.2,29,29.39,-9999.0,NNE,16.1,-,N/A,,Clear,20,2013-07-22 10:30:00
2:00 PM,104.0,68.0,31,29.36,-9999.0,NNE,16.1,-,N/A,,Clear,20,2013-07-22 11:00:00
2:30 PM,104.0,69.8,33,29.36,-9999.0,NNE,17.3,-,N/A,,Clear,20,2013-07-22 11:30:00
3:00 PM,103,70,25,29.37,6,NNE,18.4,,,,,20,2013-07-22 12:00:00
3:00 PM,104.0,69.8,33,29.36,-9999.0,NNE,18.4,-,N/A,,Clear,20,2013-07-22 12:00:00
3:30 PM,102.2,73.4,40,29.36,-9999.0,NNE,16.1,-,N/A,,Clear,20,2013-07-22 12:30:00
4:00 PM,102.2,75.2,42,29.36,-9999.0,North,16.1,-,N/A,,Clear,10,2013-07-22 13:00:00
4:30 PM,100.4,77.0,47,29.36,5.0,NNE,16.1,-,N/A,,Unknown,20,2013-07-22 13:30:00
5:00 PM,98.6,75.2,47,29.36,5.0,North,16.1,-,N/A,,Unknown,10,2013-07-22 14:00:00
5:30 PM,98.6,75.2,47,29.36,4.3,North,15.0,-,N/A,,Unknown,10,2013-07-22 14:30:00
6:00 PM,98.6,77.0,50,29.36,4.3,North,15.0,-,N/A,,Unknown,360,2013-07-22 15:00:00
6:30 PM,96.8,77.0,53,29.39,3.7,North,13.8,-,N/A,,Unknown,360,2013-07-22 15:30:00
7:00 PM,96.8,77.0,53,29.39,3.7,North,12.7,-,N/A,,Unknown,360,2013-07-22 16:00:00
7:30 PM,98.6,66.2,35,29.39,4.3,North,12.7,-,N/A,,Unknown,350,2013-07-22 16:30:00
8:00 PM,98.6,68.0,37,29.42,4.3,NNW,10.4,-,N/A,,Unknown,340,2013-07-22 17:00:00
8:30 PM,98.6,66.2,35,29.42,4.3,NNW,10.4,-,N/A,,Unknown,340,2013-07-22 17:30:00
9:00 PM,98,65,25,29.44,4,NNW,8.1,,,,Widespread Dust,340,2013-07-22 18:00:00
9:00 PM,98.6,66.2,35,29.42,4.3,NNW,8.1,-,N/A,,Unknown,340,2013-07-22 18:00:00
9:30 PM,98.6,64.4,32,29.42,4.3,NNW,8.1,-,N/A,,Unknown,340,2013-07-22 18:30:00
10:00 PM,96.8,62.6,32,29.42,4.3,NNW,8.1,-,N/A,,Unknown,340,2013-07-22 19:00:00
10:30 PM,96.8,64.4,34,29.42,4.3,NNW,6.9,-,N/A,,Unknown,340,2013-07-22 19:30:00
11:00 PM,96.8,62.6,32,29.42,5.0,NNW,6.9,-,N/A,,Unknown,340,2013-07-22 20:00:00
11:30 PM,96.8,64.4,34,29.39,5.0,North,5.8,-,N/A,,Unknown,350,2013-07-22 20:30:00